sensor_id;sensor_type;location;lat;lon;timestamp;temperature;humidity
64939;DHT22;51453;47.738;7.420;2022-09-12T00:01:23;13.00;99.90
64939;DHT22;51453;47.738;7.420;2022-09-12T00:03:57;13.00;99.90
64939;DHT22;51453;47.738;7.420;2022-09-12T00:06:27;13.00;99.90
64939;DHT22;51453;47.738;7.420;2022-09-12T00:08:55;12.90;99.90
64939;DHT22;51453;47.738;7.420;2022-09-12T00:11:21;12.90;99.90
64939;DHT22;51453;47.738;7.420;2022-09-12T00:13:47;12.90;99.90
64939;DHT22;51453;47.738;7.420;2022-09-12T00:16:24;12.90;99.90
64939;DHT22;51453;47.738;7.420;2022-09-12T00:18:50;12.80;99.90
64939;DHT22;51453;47.738;7.420;2022-09-12T00:21:18;12.80;99.90
64939;DHT22;51453;47.738;7.420;2022-09-12T00:23:45;12.70;99.90
64939;DHT22;51453;47.738;7.420;2022-09-12T00:26:11;12.70;99.90
64939;DHT22;51453;47.738;7.420;2022-09-12T00:28:38;12.60;99.90
64939;DHT22;51453;47.738;7.420;2022-09-12T00:31:17;12.50;99.90
64939;DHT22;51453;47.738;7.420;2022-09-12T00:33:43;12.50;99.90
64939;DHT22;51453;47.738;7.420;2022-09-12T00:36:12;12.50;99.90
64939;DHT22;51453;47.738;7.420;2022-09-12T00:38:39;12.50;99.90
64939;DHT22;51453;47.738;7.420;2022-09-12T00:41:09;12.40;99.90
64939;DHT22;51453;47.738;7.420;2022-09-12T00:43:44;12.30;99.90
64939;DHT22;51453;47.738;7.420;2022-09-12T00:51:26;12.10;99.90
64939;DHT22;51453;47.738;7.420;2022-09-12T00:53:53;12.20;99.90
64939;DHT22;51453;47.738;7.420;2022-09-12T00:56:21;12.20;99.90
64939;DHT22;51453;47.738;7.420;2022-09-12T00:59:03;12.10;99.90
64939;DHT22;51453;47.738;7.420;2022-09-12T01:01:30;12.10;99.90
64939;DHT22;51453;47.738;7.420;2022-09-12T01:03:56;12.20;99.90
64939;DHT22;51453;47.738;7.420;2022-09-12T01:06:27;12.10;99.90
64939;DHT22;51453;47.738;7.420;2022-09-12T01:08:54;12.10;99.90
64939;DHT22;51453;47.738;7.420;2022-09-12T01:11:21;12.10;99.90
64939;DHT22;51453;47.738;7.420;2022-09-12T01:13:47;12.10;99.90
64939;DHT22;51453;47.738;7.420;2022-09-12T01:16:14;12.10;99.90
64939;DHT22;51453;47.738;7.420;2022-09-12T01:33:02;12.20;99.90
64939;DHT22;51453;47.738;7.420;2022-09-12T01:41:41;12.20;99.90
64939;DHT22;51453;47.738;7.420;2022-09-12T01:43:51;12.20;99.90
64939;DHT22;51453;47.738;7.420;2022-09-12T01:46:42;12.20;99.90
64939;DHT22;51453;47.738;7.420;2022-09-12T01:52:03;12.20;99.90
64939;DHT22;51453;47.738;7.420;2022-09-12T01:54:44;12.30;99.90
64939;DHT22;51453;47.738;7.420;2022-09-12T02:00:05;12.30;99.90
64939;DHT22;51453;47.738;7.420;2022-09-12T02:02:32;12.30;99.90
64939;DHT22;51453;47.738;7.420;2022-09-12T02:05:11;12.30;99.90
64939;DHT22;51453;47.738;7.420;2022-09-12T02:08:05;12.30;99.90
64939;DHT22;51453;47.738;7.420;2022-09-12T02:10:40;12.30;99.90
64939;DHT22;51453;47.738;7.420;2022-09-12T02:16:00;12.50;99.90
64939;DHT22;51453;47.738;7.420;2022-09-12T02:18:29;12.50;99.90
64939;DHT22;51453;47.738;7.420;2022-09-12T02:20:57;12.50;99.90
64939;DHT22;51453;47.738;7.420;2022-09-12T02:23:28;12.50;99.90
64939;DHT22;51453;47.738;7.420;2022-09-12T02:26:05;12.50;99.90
64939;DHT22;51453;47.738;7.420;2022-09-12T02:28:35;12.50;99.90
64939;DHT22;51453;47.738;7.420;2022-09-12T02:31:26;12.50;99.90
64939;DHT22;51453;47.738;7.420;2022-09-12T02:39:10;12.40;99.90
64939;DHT22;51453;47.738;7.420;2022-09-12T02:41:36;12.50;99.90
64939;DHT22;51453;47.738;7.420;2022-09-12T02:44:03;12.50;99.90
64939;DHT22;51453;47.738;7.420;2022-09-12T02:46:56;12.40;99.90
64939;DHT22;51453;47.738;7.420;2022-09-12T02:49:24;12.40;99.90
64939;DHT22;51453;47.738;7.420;2022-09-12T02:51:50;12.40;99.90
64939;DHT22;51453;47.738;7.420;2022-09-12T02:54:17;12.50;99.90
64939;DHT22;51453;47.738;7.420;2022-09-12T02:56:44;12.50;99.90
64939;DHT22;51453;47.738;7.420;2022-09-12T02:59:17;12.50;99.90
64939;DHT22;51453;47.738;7.420;2022-09-12T03:14:56;12.40;99.90
64939;DHT22;51453;47.738;7.420;2022-09-12T03:25:24;12.40;99.90
64939;DHT22;51453;47.738;7.420;2022-09-12T03:30:23;12.20;99.90
64939;DHT22;51453;47.738;7.420;2022-09-12T03:32:51;12.20;99.90
64939;DHT22;51453;47.738;7.420;2022-09-12T03:35:21;12.10;99.90
64939;DHT22;51453;47.738;7.420;2022-09-12T03:37:48;12.10;99.90
64939;DHT22;51453;47.738;7.420;2022-09-12T03:40:14;12.00;99.90
64939;DHT22;51453;47.738;7.420;2022-09-12T03:42:40;12.10;99.90
64939;DHT22;51453;47.738;7.420;2022-09-12T03:45:07;12.00;99.90
64939;DHT22;51453;47.738;7.420;2022-09-12T03:47:33;12.00;99.90
64939;DHT22;51453;47.738;7.420;2022-09-12T03:49:59;12.00;99.90
64939;DHT22;51453;47.738;7.420;2022-09-12T03:52:25;12.00;99.90
64939;DHT22;51453;47.738;7.420;2022-09-12T03:54:50;12.00;99.90
64939;DHT22;51453;47.738;7.420;2022-09-12T03:57:17;12.00;99.90
64939;DHT22;51453;47.738;7.420;2022-09-12T03:59:42;12.00;99.90
64939;DHT22;51453;47.738;7.420;2022-09-12T04:02:08;11.90;99.90
64939;DHT22;51453;47.738;7.420;2022-09-12T04:04:37;11.90;99.90
64939;DHT22;51453;47.738;7.420;2022-09-12T04:07:02;11.80;99.90
64939;DHT22;51453;47.738;7.420;2022-09-12T04:09:28;11.80;99.90
64939;DHT22;51453;47.738;7.420;2022-09-12T04:11:54;11.70;99.90
64939;DHT22;51453;47.738;7.420;2022-09-12T04:14:20;11.70;99.90
64939;DHT22;51453;47.738;7.420;2022-09-12T04:16:45;11.60;99.90
64939;DHT22;51453;47.738;7.420;2022-09-12T04:19:11;11.60;99.90
64939;DHT22;51453;47.738;7.420;2022-09-12T04:21:37;11.50;99.90
64939;DHT22;51453;47.738;7.420;2022-09-12T04:24:04;11.40;99.90
64939;DHT22;51453;47.738;7.420;2022-09-12T04:26:30;11.50;99.90
64939;DHT22;51453;47.738;7.420;2022-09-12T04:28:56;11.50;99.90
64939;DHT22;51453;47.738;7.420;2022-09-12T04:31:22;11.50;99.90
64939;DHT22;51453;47.738;7.420;2022-09-12T04:33:59;11.60;99.90
64939;DHT22;51453;47.738;7.420;2022-09-12T04:36:26;11.60;99.90
64939;DHT22;51453;47.738;7.420;2022-09-12T04:38:52;11.60;99.90
64939;DHT22;51453;47.738;7.420;2022-09-12T04:41:38;11.50;99.90
64939;DHT22;51453;47.738;7.420;2022-09-12T04:44:06;11.50;99.90
64939;DHT22;51453;47.738;7.420;2022-09-12T04:46:36;11.50;99.90
64939;DHT22;51453;47.738;7.420;2022-09-12T04:49:03;11.40;99.90
64939;DHT22;51453;47.738;7.420;2022-09-12T04:51:34;11.40;99.90
64939;DHT22;51453;47.738;7.420;2022-09-12T04:54:02;11.50;99.90
64939;DHT22;51453;47.738;7.420;2022-09-12T04:56:29;11.40;99.90
64939;DHT22;51453;47.738;7.420;2022-09-12T04:58:59;11.40;99.90
64939;DHT22;51453;47.738;7.420;2022-09-12T05:01:26;11.40;99.90
64939;DHT22;51453;47.738;7.420;2022-09-12T05:03:53;11.50;99.90
64939;DHT22;51453;47.738;7.420;2022-09-12T05:06:24;11.60;99.90
64939;DHT22;51453;47.738;7.420;2022-09-12T05:08:51;11.60;99.90
64939;DHT22;51453;47.738;7.420;2022-09-12T05:11:20;11.70;99.90
64939;DHT22;51453;47.738;7.420;2022-09-12T05:13:46;11.80;99.90
64939;DHT22;51453;47.738;7.420;2022-09-12T05:16:13;11.80;99.90
64939;DHT22;51453;47.738;7.420;2022-09-12T05:18:40;11.80;99.90
64939;DHT22;51453;47.738;7.420;2022-09-12T05:21:08;11.90;99.90
64939;DHT22;51453;47.738;7.420;2022-09-12T05:23:34;12.00;99.90
64939;DHT22;51453;47.738;7.420;2022-09-12T05:26:00;12.10;99.90
64939;DHT22;51453;47.738;7.420;2022-09-12T05:28:35;12.10;99.90
64939;DHT22;51453;47.738;7.420;2022-09-12T05:33:29;12.30;99.90
64939;DHT22;51453;47.738;7.420;2022-09-12T05:35:55;12.30;99.90
64939;DHT22;51453;47.738;7.420;2022-09-12T05:38:21;12.30;99.90
64939;DHT22;51453;47.738;7.420;2022-09-12T05:40:49;12.30;99.90
64939;DHT22;51453;47.738;7.420;2022-09-12T05:43:15;12.40;99.90
64939;DHT22;51453;47.738;7.420;2022-09-12T05:45:41;12.40;99.90
64939;DHT22;51453;47.738;7.420;2022-09-12T05:48:07;12.50;99.90
64939;DHT22;51453;47.738;7.420;2022-09-12T05:50:32;12.50;99.90
64939;DHT22;51453;47.738;7.420;2022-09-12T05:52:58;12.50;99.90
64939;DHT22;51453;47.738;7.420;2022-09-12T05:55:24;12.60;99.90
64939;DHT22;51453;47.738;7.420;2022-09-12T05:57:50;12.70;99.90
64939;DHT22;51453;47.738;7.420;2022-09-12T06:00:16;12.70;99.90
64939;DHT22;51453;47.738;7.420;2022-09-12T06:02:43;12.70;99.90
64939;DHT22;51453;47.738;7.420;2022-09-12T06:05:09;12.80;99.90
64939;DHT22;51453;47.738;7.420;2022-09-12T06:07:35;12.90;99.90
64939;DHT22;51453;47.738;7.420;2022-09-12T06:10:01;12.90;99.90
64939;DHT22;51453;47.738;7.420;2022-09-12T06:12:28;13.00;99.90
64939;DHT22;51453;47.738;7.420;2022-09-12T06:14:54;13.00;99.90
64939;DHT22;51453;47.738;7.420;2022-09-12T06:17:21;13.10;99.90
64939;DHT22;51453;47.738;7.420;2022-09-12T06:19:47;13.20;99.90
64939;DHT22;51453;47.738;7.420;2022-09-12T06:22:15;13.30;99.90
64939;DHT22;51453;47.738;7.420;2022-09-12T06:24:42;13.30;99.90
64939;DHT22;51453;47.738;7.420;2022-09-12T06:27:08;13.40;99.90
64939;DHT22;51453;47.738;7.420;2022-09-12T06:29:33;13.40;99.90
64939;DHT22;51453;47.738;7.420;2022-09-12T06:31:59;13.50;99.90
64939;DHT22;51453;47.738;7.420;2022-09-12T06:34:24;13.50;99.90
64939;DHT22;51453;47.738;7.420;2022-09-12T06:36:51;13.60;99.90
64939;DHT22;51453;47.738;7.420;2022-09-12T06:39:19;13.80;99.90
64939;DHT22;51453;47.738;7.420;2022-09-12T06:41:46;13.90;99.90
64939;DHT22;51453;47.738;7.420;2022-09-12T06:44:15;14.00;99.90
64939;DHT22;51453;47.738;7.420;2022-09-12T06:46:41;14.00;99.90
64939;DHT22;51453;47.738;7.420;2022-09-12T06:49:06;14.10;99.90
64939;DHT22;51453;47.738;7.420;2022-09-12T06:51:33;14.30;99.90
64939;DHT22;51453;47.738;7.420;2022-09-12T06:54:01;14.40;99.90
64939;DHT22;51453;47.738;7.420;2022-09-12T06:56:27;14.40;99.90
64939;DHT22;51453;47.738;7.420;2022-09-12T06:58:55;14.50;99.90
64939;DHT22;51453;47.738;7.420;2022-09-12T07:01:23;14.50;99.90
64939;DHT22;51453;47.738;7.420;2022-09-12T07:03:51;14.60;99.90
64939;DHT22;51453;47.738;7.420;2022-09-12T07:06:19;14.70;99.90
64939;DHT22;51453;47.738;7.420;2022-09-12T07:08:46;14.80;99.90
64939;DHT22;51453;47.738;7.420;2022-09-12T07:13:41;15.00;99.90
64939;DHT22;51453;47.738;7.420;2022-09-12T07:16:07;15.10;99.90
64939;DHT22;51453;47.738;7.420;2022-09-12T07:18:33;15.10;99.90
64939;DHT22;51453;47.738;7.420;2022-09-12T07:21:04;15.20;99.90
64939;DHT22;51453;47.738;7.420;2022-09-12T07:23:30;15.20;99.90
64939;DHT22;51453;47.738;7.420;2022-09-12T07:25:57;15.30;99.90
64939;DHT22;51453;47.738;7.420;2022-09-12T07:28:24;15.40;99.90
64939;DHT22;51453;47.738;7.420;2022-09-12T07:30:50;15.50;99.90
64939;DHT22;51453;47.738;7.420;2022-09-12T07:33:19;15.50;99.90
64939;DHT22;51453;47.738;7.420;2022-09-12T07:35:45;15.50;99.90
64939;DHT22;51453;47.738;7.420;2022-09-12T07:38:11;15.60;99.90
64939;DHT22;51453;47.738;7.420;2022-09-12T07:40:36;15.60;99.90
64939;DHT22;51453;47.738;7.420;2022-09-12T07:43:02;15.80;99.90
64939;DHT22;51453;47.738;7.420;2022-09-12T07:45:28;15.80;99.90
64939;DHT22;51453;47.738;7.420;2022-09-12T07:47:54;15.90;99.90
64939;DHT22;51453;47.738;7.420;2022-09-12T07:50:20;15.90;99.90
64939;DHT22;51453;47.738;7.420;2022-09-12T07:52:45;16.00;99.90
64939;DHT22;51453;47.738;7.420;2022-09-12T07:55:11;16.10;99.90
64939;DHT22;51453;47.738;7.420;2022-09-12T07:57:37;16.30;99.90
64939;DHT22;51453;47.738;7.420;2022-09-12T08:00:04;16.40;99.90
64939;DHT22;51453;47.738;7.420;2022-09-12T08:02:30;16.50;99.90
64939;DHT22;51453;47.738;7.420;2022-09-12T08:04:56;16.50;99.90
64939;DHT22;51453;47.738;7.420;2022-09-12T08:07:21;16.70;99.90
64939;DHT22;51453;47.738;7.420;2022-09-12T08:09:47;16.80;99.90
64939;DHT22;51453;47.738;7.420;2022-09-12T08:12:13;16.80;99.90
64939;DHT22;51453;47.738;7.420;2022-09-12T08:14:40;16.90;99.90
64939;DHT22;51453;47.738;7.420;2022-09-12T08:17:05;16.90;99.90
64939;DHT22;51453;47.738;7.420;2022-09-12T08:19:31;17.00;99.90
64939;DHT22;51453;47.738;7.420;2022-09-12T08:21:56;17.10;99.90
64939;DHT22;51453;47.738;7.420;2022-09-12T08:24:22;17.20;99.90
64939;DHT22;51453;47.738;7.420;2022-09-12T08:26:49;17.30;99.90
64939;DHT22;51453;47.738;7.420;2022-09-12T08:29:15;17.40;99.90
64939;DHT22;51453;47.738;7.420;2022-09-12T08:31:41;17.30;99.90
64939;DHT22;51453;47.738;7.420;2022-09-12T08:34:07;17.40;99.90
64939;DHT22;51453;47.738;7.420;2022-09-12T08:36:34;17.60;99.90
64939;DHT22;51453;47.738;7.420;2022-09-12T08:39:04;17.80;99.90
64939;DHT22;51453;47.738;7.420;2022-09-12T08:41:31;17.90;99.90
64939;DHT22;51453;47.738;7.420;2022-09-12T08:52:34;18.20;99.90
64939;DHT22;51453;47.738;7.420;2022-09-12T08:55:03;18.20;99.90
64939;DHT22;51453;47.738;7.420;2022-09-12T08:57:31;18.10;99.90
64939;DHT22;51453;47.738;7.420;2022-09-12T08:59:58;18.10;99.90
64939;DHT22;51453;47.738;7.420;2022-09-12T09:05:11;18.10;99.90
64939;DHT22;51453;47.738;7.420;2022-09-12T09:16:05;18.60;99.90
64939;DHT22;51453;47.738;7.420;2022-09-12T09:18:33;18.60;99.90
64939;DHT22;51453;47.738;7.420;2022-09-12T09:21:08;18.70;99.90
64939;DHT22;51453;47.738;7.420;2022-09-12T09:23:47;19.00;99.90
64939;DHT22;51453;47.738;7.420;2022-09-12T09:26:22;19.20;99.90
64939;DHT22;51453;47.738;7.420;2022-09-12T09:31:24;19.40;99.90
64939;DHT22;51453;47.738;7.420;2022-09-12T09:33:52;19.40;99.90
64939;DHT22;51453;47.738;7.420;2022-09-12T09:36:35;19.60;99.90
64939;DHT22;51453;47.738;7.420;2022-09-12T09:44:27;20.20;99.90
64939;DHT22;51453;47.738;7.420;2022-09-12T09:46:54;20.00;99.90
64939;DHT22;51453;47.738;7.420;2022-09-12T09:49:23;20.00;99.90
64939;DHT22;51453;47.738;7.420;2022-09-12T09:51:50;20.10;99.90
64939;DHT22;51453;47.738;7.420;2022-09-12T09:54:38;20.30;99.90
64939;DHT22;51453;47.738;7.420;2022-09-12T10:05:59;20.40;99.90
64939;DHT22;51453;47.738;7.420;2022-09-12T10:08:32;20.80;99.90
64939;DHT22;51453;47.738;7.420;2022-09-12T10:13:37;20.90;99.90
64939;DHT22;51453;47.738;7.420;2022-09-12T10:16:28;20.90;99.90
64939;DHT22;51453;47.738;7.420;2022-09-12T10:18:54;21.00;99.90
64939;DHT22;51453;47.738;7.420;2022-09-12T10:21:52;21.00;99.90
64939;DHT22;51453;47.738;7.420;2022-09-12T10:27:18;21.20;99.90
64939;DHT22;51453;47.738;7.420;2022-09-12T10:30:14;21.20;99.90
64939;DHT22;51453;47.738;7.420;2022-09-12T10:32:44;21.30;99.90
64939;DHT22;51453;47.738;7.420;2022-09-12T10:35:24;21.50;99.90
64939;DHT22;51453;47.738;7.420;2022-09-12T10:37:58;21.50;99.90
64939;DHT22;51453;47.738;7.420;2022-09-12T10:42:54;21.40;99.90
64939;DHT22;51453;47.738;7.420;2022-09-12T10:47:58;21.50;99.90
64939;DHT22;51453;47.738;7.420;2022-09-12T10:50:35;21.60;99.90
64939;DHT22;51453;47.738;7.420;2022-09-12T10:55:41;22.10;99.90
64939;DHT22;51453;47.738;7.420;2022-09-12T10:58:30;22.00;99.90
64939;DHT22;51453;47.738;7.420;2022-09-12T11:01:32;21.90;99.90
64939;DHT22;51453;47.738;7.420;2022-09-12T11:04:13;21.90;99.90
64939;DHT22;51453;47.738;7.420;2022-09-12T11:10:14;21.90;99.90
64939;DHT22;51453;47.738;7.420;2022-09-12T11:13:10;22.20;99.90
64939;DHT22;51453;47.738;7.420;2022-09-12T11:16:04;22.60;99.90
64939;DHT22;51453;47.738;7.420;2022-09-12T11:27:27;22.90;99.90
64939;DHT22;51453;47.738;7.420;2022-09-12T11:30:02;23.00;99.90
64939;DHT22;51453;47.738;7.420;2022-09-12T11:43:37;22.90;99.90
64939;DHT22;51453;47.738;7.420;2022-09-12T11:46:30;22.80;99.90
64939;DHT22;51453;47.738;7.420;2022-09-12T11:56:45;23.10;99.90
64939;DHT22;51453;47.738;7.420;2022-09-12T12:01:46;23.20;99.90
64939;DHT22;51453;47.738;7.420;2022-09-12T12:04:19;23.20;99.90
64939;DHT22;51453;47.738;7.420;2022-09-12T12:06:49;23.40;99.90
64939;DHT22;51453;47.738;7.420;2022-09-12T12:09:17;23.40;99.90
64939;DHT22;51453;47.738;7.420;2022-09-12T12:11:47;23.50;99.90
64939;DHT22;51453;47.738;7.420;2022-09-12T12:14:29;23.70;99.90
64939;DHT22;51453;47.738;7.420;2022-09-12T12:16:56;23.70;99.90
64939;DHT22;51453;47.738;7.420;2022-09-12T12:19:34;23.90;99.90
64939;DHT22;51453;47.738;7.420;2022-09-12T12:27:24;24.30;99.90
64939;DHT22;51453;47.738;7.420;2022-09-12T12:33:04;24.30;99.90
64939;DHT22;51453;47.738;7.420;2022-09-12T12:35:41;24.20;99.90
64939;DHT22;51453;47.738;7.420;2022-09-12T12:38:27;24.30;99.90
64939;DHT22;51453;47.738;7.420;2022-09-12T12:40:59;24.30;99.90
64939;DHT22;51453;47.738;7.420;2022-09-12T12:43:39;24.20;99.90
64939;DHT22;51453;47.738;7.420;2022-09-12T12:46:07;24.50;99.90
64939;DHT22;51453;47.738;7.420;2022-09-12T12:49:27;24.60;99.90
64939;DHT22;51453;47.738;7.420;2022-09-12T12:51:37;24.40;99.90
64939;DHT22;51453;47.738;7.420;2022-09-12T12:54:28;24.20;99.90
64939;DHT22;51453;47.738;7.420;2022-09-12T12:59:53;24.20;99.90
64939;DHT22;51453;47.738;7.420;2022-09-12T13:02:25;24.30;99.90
64939;DHT22;51453;47.738;7.420;2022-09-12T13:04:51;24.50;99.90
64939;DHT22;51453;47.738;7.420;2022-09-12T13:07:29;24.40;99.90
64939;DHT22;51453;47.738;7.420;2022-09-12T13:09:57;24.20;99.90
64939;DHT22;51453;47.738;7.420;2022-09-12T13:12:30;24.10;99.90
64939;DHT22;51453;47.738;7.420;2022-09-12T13:14:59;24.10;99.90
64939;DHT22;51453;47.738;7.420;2022-09-12T13:17:36;24.10;99.90
64939;DHT22;51453;47.738;7.420;2022-09-12T13:22:43;24.30;99.90
64939;DHT22;51453;47.738;7.420;2022-09-12T13:25:34;24.20;99.90
64939;DHT22;51453;47.738;7.420;2022-09-12T13:28:04;24.30;99.90
64939;DHT22;51453;47.738;7.420;2022-09-12T13:30:31;24.70;99.90
64939;DHT22;51453;47.738;7.420;2022-09-12T13:43:48;24.70;99.90
64939;DHT22;51453;47.738;7.420;2022-09-12T13:46:25;24.70;99.90
64939;DHT22;51453;47.738;7.420;2022-09-12T13:48:52;24.60;99.90
64939;DHT22;51453;47.738;7.420;2022-09-12T13:51:24;24.40;99.90
64939;DHT22;51453;47.738;7.420;2022-09-12T13:53:52;24.50;99.90
64939;DHT22;51453;47.738;7.420;2022-09-12T13:56:20;24.50;99.90
64939;DHT22;51453;47.738;7.420;2022-09-12T13:58:58;24.60;99.90
64939;DHT22;51453;47.738;7.420;2022-09-12T14:01:40;24.60;99.90
64939;DHT22;51453;47.738;7.420;2022-09-12T14:07:08;24.40;99.90
64939;DHT22;51453;47.738;7.420;2022-09-12T14:09:43;24.40;99.90
64939;DHT22;51453;47.738;7.420;2022-09-12T14:12:25;24.30;99.90
64939;DHT22;51453;47.738;7.420;2022-09-12T14:14:52;24.30;99.90
64939;DHT22;51453;47.738;7.420;2022-09-12T14:17:37;24.40;99.90
64939;DHT22;51453;47.738;7.420;2022-09-12T14:20:12;24.40;99.90
64939;DHT22;51453;47.738;7.420;2022-09-12T14:22:39;24.40;99.90
64939;DHT22;51453;47.738;7.420;2022-09-12T14:25:06;24.30;99.90
64939;DHT22;51453;47.738;7.420;2022-09-12T14:27:43;24.20;99.90
64939;DHT22;51453;47.738;7.420;2022-09-12T14:30:28;24.00;99.90
64939;DHT22;51453;47.738;7.420;2022-09-12T14:35:43;23.90;99.90
64939;DHT22;51453;47.738;7.420;2022-09-12T14:40:46;23.80;99.90
64939;DHT22;51453;47.738;7.420;2022-09-12T14:45:51;23.90;99.90
64939;DHT22;51453;47.738;7.420;2022-09-12T14:48:19;23.90;99.90
64939;DHT22;51453;47.738;7.420;2022-09-12T14:50:48;24.10;99.90
64939;DHT22;51453;47.738;7.420;2022-09-12T14:55:46;24.10;99.90
64939;DHT22;51453;47.738;7.420;2022-09-12T14:58:22;24.30;99.90
64939;DHT22;51453;47.738;7.420;2022-09-12T15:00:59;24.40;99.90
64939;DHT22;51453;47.738;7.420;2022-09-12T15:05:58;24.30;99.90
64939;DHT22;51453;47.738;7.420;2022-09-12T15:08:25;24.50;99.90
64939;DHT22;51453;47.738;7.420;2022-09-12T15:10:51;24.80;99.90
64939;DHT22;51453;47.738;7.420;2022-09-12T15:13:20;24.90;99.90
64939;DHT22;51453;47.738;7.420;2022-09-12T15:15:52;25.00;99.90
64939;DHT22;51453;47.738;7.420;2022-09-12T15:18:18;25.10;99.90
64939;DHT22;51453;47.738;7.420;2022-09-12T15:20:46;25.20;99.90
64939;DHT22;51453;47.738;7.420;2022-09-12T15:26:00;24.90;99.90
64939;DHT22;51453;47.738;7.420;2022-09-12T15:28:26;24.80;99.90
64939;DHT22;51453;47.738;7.420;2022-09-12T15:30:53;24.70;99.90
64939;DHT22;51453;47.738;7.420;2022-09-12T15:33:21;24.70;99.90
64939;DHT22;51453;47.738;7.420;2022-09-12T15:35:48;24.80;99.90
64939;DHT22;51453;47.738;7.420;2022-09-12T15:38:14;24.70;99.90
64939;DHT22;51453;47.738;7.420;2022-09-12T15:40:40;24.60;99.90
64939;DHT22;51453;47.738;7.420;2022-09-12T15:43:06;24.50;99.90
64939;DHT22;51453;47.738;7.420;2022-09-12T15:45:33;24.40;99.90
64939;DHT22;51453;47.738;7.420;2022-09-12T15:48:00;24.30;99.90
64939;DHT22;51453;47.738;7.420;2022-09-12T15:50:28;24.20;99.90
64939;DHT22;51453;47.738;7.420;2022-09-12T15:52:54;24.20;99.90
64939;DHT22;51453;47.738;7.420;2022-09-12T15:55:28;24.30;99.90
64939;DHT22;51453;47.738;7.420;2022-09-12T15:57:54;24.30;99.90
64939;DHT22;51453;47.738;7.420;2022-09-12T16:00:20;24.30;99.90
64939;DHT22;51453;47.738;7.420;2022-09-12T16:02:49;24.30;99.90
64939;DHT22;51453;47.738;7.420;2022-09-12T16:05:18;24.20;99.90
64939;DHT22;51453;47.738;7.420;2022-09-12T16:07:44;24.10;99.90
64939;DHT22;51453;47.738;7.420;2022-09-12T16:10:16;24.00;99.90
64939;DHT22;51453;47.738;7.420;2022-09-12T16:12:43;23.90;99.90
64939;DHT22;51453;47.738;7.420;2022-09-12T16:15:15;24.00;99.90
64939;DHT22;51453;47.738;7.420;2022-09-12T16:17:41;23.90;99.90
64939;DHT22;51453;47.738;7.420;2022-09-12T16:20:07;23.80;99.90
64939;DHT22;51453;47.738;7.420;2022-09-12T16:22:33;23.70;99.90
64939;DHT22;51453;47.738;7.420;2022-09-12T16:24:59;23.70;99.90
64939;DHT22;51453;47.738;7.420;2022-09-12T16:27:24;23.60;99.90
64939;DHT22;51453;47.738;7.420;2022-09-12T16:29:50;23.40;99.90
64939;DHT22;51453;47.738;7.420;2022-09-12T16:32:16;23.30;99.90
64939;DHT22;51453;47.738;7.420;2022-09-12T16:34:42;23.10;99.90
64939;DHT22;51453;47.738;7.420;2022-09-12T16:37:08;23.10;99.90
64939;DHT22;51453;47.738;7.420;2022-09-12T16:39:34;23.00;99.90
64939;DHT22;51453;47.738;7.420;2022-09-12T16:42:00;22.90;99.90
64939;DHT22;51453;47.738;7.420;2022-09-12T16:44:26;22.80;99.90
64939;DHT22;51453;47.738;7.420;2022-09-12T16:46:51;22.70;99.90
64939;DHT22;51453;47.738;7.420;2022-09-12T16:49:17;22.70;99.90
64939;DHT22;51453;47.738;7.420;2022-09-12T16:51:42;22.50;99.90
64939;DHT22;51453;47.738;7.420;2022-09-12T16:54:12;22.40;99.90
64939;DHT22;51453;47.738;7.420;2022-09-12T16:56:39;22.30;99.90
64939;DHT22;51453;47.738;7.420;2022-09-12T16:59:05;22.20;99.90
64939;DHT22;51453;47.738;7.420;2022-09-12T17:01:31;22.00;99.90
64939;DHT22;51453;47.738;7.420;2022-09-12T17:03:59;21.90;99.90
64939;DHT22;51453;47.738;7.420;2022-09-12T17:06:26;21.80;99.90
64939;DHT22;51453;47.738;7.420;2022-09-12T17:08:53;21.70;99.90
64939;DHT22;51453;47.738;7.420;2022-09-12T17:11:25;21.50;99.90
64939;DHT22;51453;47.738;7.420;2022-09-12T17:13:53;21.40;99.90
64939;DHT22;51453;47.738;7.420;2022-09-12T17:16:20;21.30;99.90
64939;DHT22;51453;47.738;7.420;2022-09-12T17:18:46;21.20;99.90
64939;DHT22;51453;47.738;7.420;2022-09-12T17:21:13;21.10;99.90
64939;DHT22;51453;47.738;7.420;2022-09-12T17:23:39;20.90;99.90
64939;DHT22;51453;47.738;7.420;2022-09-12T17:26:06;20.80;99.90
64939;DHT22;51453;47.738;7.420;2022-09-12T17:28:32;20.70;99.90
64939;DHT22;51453;47.738;7.420;2022-09-12T17:31:04;20.60;99.90
64939;DHT22;51453;47.738;7.420;2022-09-12T17:33:30;20.50;99.90
64939;DHT22;51453;47.738;7.420;2022-09-12T17:36:00;20.40;99.90
64939;DHT22;51453;47.738;7.420;2022-09-12T17:38:27;20.30;99.90
64939;DHT22;51453;47.738;7.420;2022-09-12T17:40:52;20.20;99.90
64939;DHT22;51453;47.738;7.420;2022-09-12T17:43:18;20.20;99.90
64939;DHT22;51453;47.738;7.420;2022-09-12T17:45:44;20.10;99.90
64939;DHT22;51453;47.738;7.420;2022-09-12T17:48:10;20.00;99.90
64939;DHT22;51453;47.738;7.420;2022-09-12T17:50:37;19.90;99.90
64939;DHT22;51453;47.738;7.420;2022-09-12T17:53:03;19.90;99.90
64939;DHT22;51453;47.738;7.420;2022-09-12T17:55:34;19.70;99.90
64939;DHT22;51453;47.738;7.420;2022-09-12T17:58:00;19.70;99.90
64939;DHT22;51453;47.738;7.420;2022-09-12T18:00:26;19.60;99.90
64939;DHT22;51453;47.738;7.420;2022-09-12T18:03:11;19.50;99.90
64939;DHT22;51453;47.738;7.420;2022-09-12T18:05:47;19.30;99.90
64939;DHT22;51453;47.738;7.420;2022-09-12T18:08:13;19.30;99.90
64939;DHT22;51453;47.738;7.420;2022-09-12T18:10:39;19.20;99.90
64939;DHT22;51453;47.738;7.420;2022-09-12T18:13:05;19.10;99.90
64939;DHT22;51453;47.738;7.420;2022-09-12T18:15:34;19.00;99.90
64939;DHT22;51453;47.738;7.420;2022-09-12T18:18:00;19.00;99.90
64939;DHT22;51453;47.738;7.420;2022-09-12T18:20:26;19.00;99.90
64939;DHT22;51453;47.738;7.420;2022-09-12T18:22:52;18.90;99.90
64939;DHT22;51453;47.738;7.420;2022-09-12T18:25:17;18.80;99.90
64939;DHT22;51453;47.738;7.420;2022-09-12T18:27:43;18.70;99.90
64939;DHT22;51453;47.738;7.420;2022-09-12T18:30:09;18.70;99.90
64939;DHT22;51453;47.738;7.420;2022-09-12T18:32:35;18.60;99.90
64939;DHT22;51453;47.738;7.420;2022-09-12T18:35:01;18.50;99.90
64939;DHT22;51453;47.738;7.420;2022-09-12T18:37:26;18.40;99.90
64939;DHT22;51453;47.738;7.420;2022-09-12T18:39:52;18.40;99.90
64939;DHT22;51453;47.738;7.420;2022-09-12T18:42:18;18.30;99.90
64939;DHT22;51453;47.738;7.420;2022-09-12T18:44:43;18.20;99.90
64939;DHT22;51453;47.738;7.420;2022-09-12T18:47:09;18.10;99.90
64939;DHT22;51453;47.738;7.420;2022-09-12T18:49:35;18.10;99.90
64939;DHT22;51453;47.738;7.420;2022-09-12T18:52:01;18.10;99.90
64939;DHT22;51453;47.738;7.420;2022-09-12T18:54:27;18.10;99.90
64939;DHT22;51453;47.738;7.420;2022-09-12T18:56:52;17.90;99.90
64939;DHT22;51453;47.738;7.420;2022-09-12T18:59:18;17.90;99.90